Terminal Aerodrome Forecast
Issued by NWS Shreveport, LA

Home | Current Version | Previous Version | Text Only | Print | Product List | Glossary On
Versions: 1 2 3 4 5 6 7 8 9 10 11 12 13 14 15 16
000
FTUS44 KSHV 301120
TAFTXK
TAF
KTXK 301120Z 3012/3112 VRB03KT P6SM SCT080
      TEMPO 3014/3018 BKN030
     FM310200 17004KT P6SM BKN120
      TEMPO 3108/3112 5SM BR BKN025=

USA.gov is the U.S. government's official web portal to all federal, state and local government web resources and services.